Time;durP1;ratioP1;P1;durP2;ratioP2;P2;SDS_P1;SDS_P2;PMS_P1;PMS_P2;Temp;Humidity;BMP_temperature;BMP_pressure;BME280_temperature;BME280_humidity;BME280_pressure;Samples;Min_cycle;Max_cycle;Signal;HPM_P1;HPM_P2
2021/10/22 05:29:10;;;;;;;7.75;5.47;;;;;;;;;;3857729;37;20082;-63
2021/10/22 05:31:36;;;;;;;10.32;6.10;;;;;;;;;;4419484;32;20096;-63
2021/10/22 05:34:02;;;;;;;9.25;5.87;;;;;;;;;;4420084;32;20124;-63
2021/10/22 05:36:28;;;;;;;8.00;5.50;;;;;;;;;;4405384;32;20124;-63
2021/10/22 05:38:54;;;;;;;7.60;5.35;;;;;;;;;;4419449;32;20460;-62
2021/10/22 05:41:20;;;;;;;13.85;6.25;;;;;;;;;;4419583;32;20109;-63
2021/10/22 05:43:47;;;;;;;9.15;6.15;;;;;;;;;;4419629;32;20092;-62
2021/10/22 05:46:14;;;;;;;7.90;5.18;;;;;;;;;;4405209;32;20113;-62
2021/10/22 05:48:40;;;;;;;6.25;4.57;;;;;;;;;;4419505;32;20128;-63
2021/10/22 05:51:06;;;;;;;10.75;5.90;;;;;;;;;;4419610;32;20436;-62
2021/10/22 05:53:32;;;;;;;7.97;5.30;;;;;;;;;;4419745;32;20097;-62
2021/10/22 05:55:58;;;;;;;4.90;4.40;;;;;;;;;;4419338;32;20109;-61
2021/10/22 05:58:24;;;;;;;7.93;4.68;;;;;;;;;;4419313;32;20096;-62
2021/10/22 06:00:50;;;;;;;8.60;4.82;;;;;;;;;;4417863;32;20207;-62
2021/10/22 06:03:16;;;;;;;5.80;5.10;;;;;;;;;;4419246;32;20512;-62
2021/10/22 06:05:42;;;;;;;4.72;3.85;;;;;;;;;;4419320;32;20109;-62
2021/10/22 06:08:09;;;;;;;8.05;4.78;;;;;;;;;;4419266;32;20116;-62
2021/10/22 06:10:35;;;;;;;6.55;5.05;;;;;;;;;;4417839;32;20089;-62
2021/10/22 06:13:02;;;;;;;5.75;4.78;;;;;;;;;;4419432;32;20567;-61
2021/10/22 06:15:29;;;;;;;9.63;5.30;;;;;;;;;;4419286;32;20507;-62
2021/10/22 06:17:55;;;;;;;12.68;5.18;;;;;;;;;;4419268;32;20527;-63
2021/10/22 06:26:03;;;;;;;5.85;4.90;;;;;;;;;;4419273;32;20183;-61
2021/10/22 06:28:29;;;;;;;5.93;5.30;;;;;;;;;;4419148;32;20128;-64
2021/10/22 06:30:55;;;;;;;8.00;5.18;;;;;;;;;;4392562;32;20112;-62
2021/10/22 06:33:21;;;;;;;6.60;4.97;;;;;;;;;;4404853;32;20205;-61
2021/10/22 06:35:48;;;;;;;6.50;4.47;;;;;;;;;;4417688;32;20115;-62
2021/10/22 06:38:14;;;;;;;8.05;5.62;;;;;;;;;;4419167;32;20649;-62
2021/10/22 06:40:40;;;;;;;8.90;5.70;;;;;;;;;;4407211;32;20207;-62
2021/10/22 06:43:06;;;;;;;9.95;5.57;;;;;;;;;;4408844;32;20132;-62
2021/10/22 06:45:31;;;;;;;5.70;4.65;;;;;;;;;;4409119;32;20157;-62
2021/10/22 06:47:57;;;;;;;5.35;4.10;;;;;;;;;;4408825;32;20191;-62
2021/10/22 06:50:23;;;;;;;7.10;4.25;;;;;;;;;;4407400;32;20592;-62
2021/10/22 06:52:49;;;;;;;8.40;5.82;;;;;;;;;;4382240;32;20217;-63
2021/10/22 06:55:16;;;;;;;7.50;6.20;;;;;;;;;;4407559;32;20116;-62
2021/10/22 06:57:42;;;;;;;6.70;4.35;;;;;;;;;;4408769;32;20109;-62
2021/10/22 07:00:08;;;;;;;7.05;5.72;;;;;;;;;;4409015;32;20205;-62
2021/10/22 07:02:48;;;;;;;8.60;5.93;;;;;;;;;;4408645;32;20205;-61
2021/10/22 07:05:26;;;;;;;7.87;5.15;;;;;;;;;;4408806;32;20221;-62
2021/10/22 07:07:52;;;;;;;7.97;5.80;;;;;;;;;;4408539;32;20121;-62
2021/10/22 07:10:19;;;;;;;10.60;5.93;;;;;;;;;;4408921;32;20109;-62
2021/10/22 07:12:45;;;;;;;9.35;6.12;;;;;;;;;;4407434;32;20280;-62
2021/10/22 07:15:11;;;;;;;6.87;5.55;;;;;;;;;;4408920;32;20105;-62
2021/10/22 07:17:37;;;;;;;9.23;5.60;;;;;;;;;;4408594;32;20219;-63
2021/10/22 07:20:04;;;;;;;9.70;5.80;;;;;;;;;;4381888;32;20520;-62
2021/10/22 07:22:32;;;;;;;9.60;5.95;;;;;;;;;;4407231;32;20089;-61
2021/10/22 07:24:58;;;;;;;8.07;5.75;;;;;;;;;;4407089;32;20105;-61
2021/10/22 07:27:24;;;;;;;9.32;5.97;;;;;;;;;;4408323;32;20109;-62
2021/10/22 07:29:50;;;;;;;9.35;5.90;;;;;;;;;;4406990;32;20116;-62
2021/10/22 07:32:16;;;;;;;11.02;6.53;;;;;;;;;;4407036;32;20110;-62
2021/10/22 07:34:42;;;;;;;8.75;5.03;;;;;;;;;;4407208;32;20112;-62
2021/10/22 07:37:08;;;;;;;14.98;6.22;;;;;;;;;;4381584;32;20207;-62
2021/10/22 07:39:33;;;;;;;6.97;4.90;;;;;;;;;;4408438;32;20109;-62
2021/10/22 07:41:59;;;;;;;9.35;5.75;;;;;;;;;;4408245;32;20137;-62
2021/10/22 07:44:25;;;;;;;11.65;5.82;;;;;;;;;;4408485;32;20217;-62
2021/10/22 07:46:52;;;;;;;9.38;6.62;;;;;;;;;;4406745;32;20209;-62
2021/10/22 07:49:17;;;;;;;10.60;5.60;;;;;;;;;;4408815;32;20164;-61
2021/10/22 07:51:44;;;;;;;10.18;5.07;;;;;;;;;;4393483;32;20113;-62
2021/10/22 07:54:10;;;;;;;10.50;5.47;;;;;;;;;;4407070;32;20120;-61
2021/10/22 07:56:36;;;;;;;8.32;5.93;;;;;;;;;;4408164;32;20096;-62
2021/10/22 07:59:04;;;;;;;6.85;4.28;;;;;;;;;;4408496;32;20140;-61
2021/10/22 08:01:30;;;;;;;10.73;5.85;;;;;;;;;;4408193;32;20096;-62
2021/10/22 08:03:56;;;;;;;8.18;5.90;;;;;;;;;;4408683;32;20542;-62
2021/10/22 08:06:22;;;;;;;8.85;5.28;;;;;;;;;;4408527;32;20101;-72
2021/10/22 08:08:48;;;;;;;10.23;6.10;;;;;;;;;;4408332;32;20483;-72
2021/10/22 08:11:15;;;;;;;5.35;3.65;;;;;;;;;;4408181;32;20112;-72
2021/10/22 08:13:42;;;;;;;9.93;6.07;;;;;;;;;;4408474;32;20201;-71
2021/10/22 08:16:08;;;;;;;9.95;5.60;;;;;;;;;;4394822;32;20111;-70
2021/10/22 08:18:33;;;;;;;11.18;5.40;;;;;;;;;;4408337;32;20101;-73
2021/10/22 08:21:04;;;;;;;9.05;5.45;;;;;;;;;;4408329;32;20097;-71
2021/10/22 08:23:30;;;;;;;11.00;5.90;;;;;;;;;;4408026;32;20098;-68
2021/10/22 08:25:56;;;;;;;4.45;3.12;;;;;;;;;;4408691;32;20181;-69
2021/10/22 08:28:22;;;;;;;6.70;4.28;;;;;;;;;;4407973;32;20524;-69
2021/10/22 08:30:55;;;;;;;5.90;4.95;;;;;;;;;;4408321;32;20266;-68
2021/10/22 08:33:25;;;;;;;4.40;3.28;;;;;;;;;;4408098;32;20494;-69
2021/10/22 08:35:52;;;;;;;5.37;3.70;;;;;;;;;;4406223;32;20433;-69
2021/10/22 08:38:18;;;;;;;6.78;4.80;;;;;;;;;;4407760;32;20116;-69
2021/10/22 08:40:44;;;;;;;14.20;5.65;;;;;;;;;;4406755;32;20208;-69
2021/10/22 08:43:09;;;;;;;16.52;6.43;;;;;;;;;;4407712;32;20476;-69
2021/10/22 08:45:35;;;;;;;9.48;5.80;;;;;;;;;;4407704;32;20120;-67
2021/10/22 08:48:02;;;;;;;7.12;5.28;;;;;;;;;;4393990;32;20100;-68
2021/10/22 08:50:28;;;;;;;7.25;5.30;;;;;;;;;;4408173;32;20193;-67
2021/10/22 08:52:54;;;;;;;5.78;4.43;;;;;;;;;;4407825;32;20456;-68
2021/10/22 08:55:20;;;;;;;7.87;4.72;;;;;;;;;;4408012;32;20093;-68
2021/10/22 08:57:47;;;;;;;11.95;5.15;;;;;;;;;;4407676;32;20112;-68
2021/10/22 09:00:15;;;;;;;12.45;5.43;;;;;;;;;;4406393;32;20503;-68
2021/10/22 09:02:41;;;;;;;10.77;6.10;;;;;;;;;;4407387;32;20113;-68
2021/10/22 09:05:13;;;;;;;12.32;6.12;;;;;;;;;;4393793;32;20117;-68
2021/10/22 09:07:47;;;;;;;6.37;4.87;;;;;;;;;;4406089;32;20125;-68
2021/10/22 09:10:18;;;;;;;10.35;6.30;;;;;;;;;;4407662;32;20096;-68
2021/10/22 09:12:53;;;;;;;11.77;6.68;;;;;;;;;;4406428;32;20205;-68
2021/10/22 09:15:23;;;;;;;10.63;6.78;;;;;;;;;;4407901;32;20208;-70
2021/10/22 09:17:49;;;;;;;8.75;5.25;;;;;;;;;;4406163;32;20512;-70
2021/10/22 09:20:16;;;;;;;8.77;5.43;;;;;;;;;;4407699;32;20089;-69
2021/10/22 09:22:48;;;;;;;7.75;6.00;;;;;;;;;;4407528;32;20100;-68
2021/10/22 09:25:16;;;;;;;8.85;5.97;;;;;;;;;;4407441;32;20129;-70
2021/10/22 09:27:53;;;;;;;8.98;6.70;;;;;;;;;;4407564;32;20097;-67
2021/10/22 09:30:37;;;;;;;9.45;6.55;;;;;;;;;;4407647;32;20109;-68
2021/10/22 09:33:07;;;;;;;7.68;6.12;;;;;;;;;;4407505;32;20104;-66
2021/10/22 09:35:43;;;;;;;9.50;6.03;;;;;;;;;;4380976;32;20100;-65
2021/10/22 09:38:25;;;;;;;11.43;6.65;;;;;;;;;;4406214;32;20184;-66
2021/10/22 09:40:56;;;;;;;9.10;6.32;;;;;;;;;;4406180;32;20100;-66
2021/10/22 09:43:30;;;;;;;11.68;5.93;;;;;;;;;;4405867;32;20129;-65
2021/10/22 09:46:14;;;;;;;11.45;6.35;;;;;;;;;;4393599;32;20093;-69
2021/10/22 09:48:43;;;;;;;6.95;5.35;;;;;;;;;;4406994;32;20547;-68
2021/10/22 09:51:25;;;;;;;10.52;5.72;;;;;;;;;;4407114;32;20584;-69
2021/10/22 09:53:51;;;;;;;12.75;6.10;;;;;;;;;;4407109;32;20105;-67
2021/10/22 09:56:22;;;;;;;8.30;6.18;;;;;;;;;;4405820;32;20124;-67
2021/10/22 09:58:58;;;;;;;13.73;6.85;;;;;;;;;;4406766;32;20112;-71
2021/10/22 10:01:35;;;;;;;8.13;6.53;;;;;;;;;;4407104;32;20097;-72
2021/10/22 10:04:01;;;;;;;9.45;6.18;;;;;;;;;;4405198;32;20512;-70
2021/10/22 10:06:31;;;;;;;12.63;6.72;;;;;;;;;;4362365;32;20539;-61
2021/10/22 10:08:59;;;;;;;11.15;6.03;;;;;;;;;;4379505;32;20120;-61
2021/10/22 10:11:26;;;;;;;12.48;7.93;;;;;;;;;;4349579;32;20109;-66
2021/10/22 10:13:54;;;;;;;12.32;6.50;;;;;;;;;;4389574;32;20117;-72
2021/10/22 10:16:20;;;;;;;8.85;6.70;;;;;;;;;;4393640;32;20113;-72
2021/10/22 10:18:54;;;;;;;9.80;6.25;;;;;;;;;;4392326;32;20109;-68
2021/10/22 10:21:21;;;;;;;11.93;5.70;;;;;;;;;;4406570;32;20087;-67
2021/10/22 10:23:47;;;;;;;12.30;4.78;;;;;;;;;;4407100;32;20543;-67
2021/10/22 10:26:25;;;;;;;9.20;5.87;;;;;;;;;;4381124;32;20112;-69
2021/10/22 10:28:51;;;;;;;8.73;5.12;;;;;;;;;;4392143;32;20523;-69
2021/10/22 10:31:33;;;;;;;7.30;5.30;;;;;;;;;;4407978;32;20128;-68
2021/10/22 10:34:30;;;;;;;9.25;5.65;;;;;;;;;;4408804;32;20569;-68
2021/10/22 10:36:59;;;;;;;9.20;6.82;;;;;;;;;;4381258;32;20192;-73
2021/10/22 10:39:43;;;;;;;4.95;4.35;;;;;;;;;;4406130;32;20187;-67
2021/10/22 10:42:34;;;;;;;9.35;5.03;;;;;;;;;;4395108;32;20202;-67
2021/10/22 10:45:24;;;;;;;6.78;5.70;;;;;;;;;;4408267;32;20105;-73
2021/10/22 10:48:04;;;;;;;10.85;5.20;;;;;;;;;;4408538;32;20112;-74
2021/10/22 10:50:41;;;;;;;8.18;4.40;;;;;;;;;;4407379;32;20197;-66
2021/10/22 10:53:14;;;;;;;7.20;4.60;;;;;;;;;;4395127;32;20147;-69
2021/10/22 10:55:48;;;;;;;9.05;6.50;;;;;;;;;;4393592;32;20102;-67
2021/10/22 10:58:16;;;;;;;10.02;6.30;;;;;;;;;;4393465;32;20182;-73
2021/10/22 11:00:51;;;;;;;8.18;5.75;;;;;;;;;;4393078;32;20114;-69
2021/10/22 11:03:22;;;;;;;11.02;5.60;;;;;;;;;;4393121;32;20117;-67
2021/10/22 11:05:52;;;;;;;10.60;5.87;;;;;;;;;;4403083;32;20097;-69
2021/10/22 11:08:23;;;;;;;10.82;5.97;;;;;;;;;;4407854;32;20104;-67
2021/10/22 11:10:57;;;;;;;7.40;6.03;;;;;;;;;;4408783;32;20092;-72
2021/10/22 11:13:23;;;;;;;2.72;2.10;;;;;;;;;;4407748;32;20538;-73
2021/10/22 11:15:50;;;;;;;14.32;7.65;;;;;;;;;;4395654;32;20125;-69
2021/10/22 11:18:20;;;;;;;11.52;5.65;;;;;;;;;;4391763;32;20207;-67
2021/10/22 11:20:49;;;;;;;8.40;5.25;;;;;;;;;;4402825;32;20082;-67
2021/10/22 11:23:15;;;;;;;14.48;4.85;;;;;;;;;;4408314;32;20141;-69
2021/10/22 11:25:41;;;;;;;11.60;6.35;;;;;;;;;;4407908;32;20528;-67
2021/10/22 11:28:12;;;;;;;9.60;5.32;;;;;;;;;;4408038;32;20112;-66
2021/10/22 11:30:39;;;;;;;6.80;5.18;;;;;;;;;;4398111;32;20116;-67
2021/10/22 11:33:05;;;;;;;9.13;6.15;;;;;;;;;;4398895;32;20431;-69
2021/10/22 11:35:31;;;;;;;3.33;2.87;;;;;;;;;;4393333;32;20120;-65
2021/10/22 11:38:06;;;;;;;6.85;4.37;;;;;;;;;;4356896;32;20082;-69
2021/10/22 11:40:32;;;;;;;9.00;4.97;;;;;;;;;;4402149;32;20460;-68
2021/10/22 11:43:08;;;;;;;6.22;5.22;;;;;;;;;;4393097;32;20129;-69
2021/10/22 11:45:34;;;;;;;12.07;6.22;;;;;;;;;;4393101;32;20093;-69
2021/10/22 11:48:00;;;;;;;9.30;5.65;;;;;;;;;;4392799;32;20148;-70
2021/10/22 11:50:32;;;;;;;10.27;5.80;;;;;;;;;;4405449;32;20125;-69
2021/10/22 11:53:11;;;;;;;13.02;5.30;;;;;;;;;;4386390;32;20460;-70
2021/10/22 11:55:38;;;;;;;8.90;6.05;;;;;;;;;;4393327;32;20102;-71
2021/10/22 11:58:09;;;;;;;8.93;5.05;;;;;;;;;;4393274;32;20108;-69
2021/10/22 12:01:10;;;;;;;10.07;5.60;;;;;;;;;;4392585;32;20105;-71
2021/10/22 12:03:39;;;;;;;8.60;5.78;;;;;;;;;;4368770;32;20212;-70
2021/10/22 12:06:22;;;;;;;13.60;5.60;;;;;;;;;;4408167;32;20128;-70
2021/10/22 12:08:52;;;;;;;9.32;6.35;;;;;;;;;;4407937;32;20124;-70
2021/10/22 12:11:18;;;;;;;10.68;6.53;;;;;;;;;;4408122;32;20093;-69
2021/10/22 12:13:45;;;;;;;9.70;6.15;;;;;;;;;;4408197;32;20580;-69
2021/10/22 12:16:14;;;;;;;11.15;6.25;;;;;;;;;;4407878;32;20105;-70
2021/10/22 12:18:50;;;;;;;11.10;6.95;;;;;;;;;;4407993;32;20128;-67
2021/10/22 12:21:16;;;;;;;11.25;5.43;;;;;;;;;;4408120;32;20104;-69
2021/10/22 12:23:42;;;;;;;14.27;6.45;;;;;;;;;;4394235;32;20098;-70
2021/10/22 12:26:29;;;;;;;3.95;3.55;;;;;;;;;;4408030;32;20132;-70
2021/10/22 12:29:03;;;;;;;11.82;6.30;;;;;;;;;;4407638;32;20104;-70
2021/10/22 12:31:50;;;;;;;10.57;6.45;;;;;;;;;;4406235;32;20096;-70
2021/10/22 12:34:26;;;;;;;9.63;5.62;;;;;;;;;;4408003;32;20124;-71
2021/10/22 12:37:13;;;;;;;7.95;5.90;;;;;;;;;;4407243;32;20113;-70
2021/10/22 12:39:42;;;;;;;10.68;6.22;;;;;;;;;;4406789;32;20460;-70
2021/10/22 12:42:21;;;;;;;9.52;6.90;;;;;;;;;;4407745;32;20538;-71
2021/10/22 12:44:47;;;;;;;9.43;5.80;;;;;;;;;;4407942;32;20105;-70
2021/10/22 12:47:13;;;;;;;3.10;2.75;;;;;;;;;;4407857;32;20109;-70
2021/10/22 12:49:39;;;;;;;10.48;5.87;;;;;;;;;;4406301;32;20140;-70
2021/10/22 12:52:05;;;;;;;10.63;6.00;;;;;;;;;;4393760;32;20110;-70
2021/10/22 12:54:45;;;;;;;11.45;8.30;;;;;;;;;;4407808;32;20110;-70
2021/10/22 12:57:20;;;;;;;11.35;7.53;;;;;;;;;;4407587;32;20141;-69
2021/10/22 12:59:45;;;;;;;9.38;6.32;;;;;;;;;;4407857;32;20197;-69
2021/10/22 13:02:30;;;;;;;10.10;6.70;;;;;;;;;;4406126;32;20187;-70
2021/10/22 13:05:15;;;;;;;8.27;5.80;;;;;;;;;;4407590;32;20109;-70
2021/10/22 13:07:56;;;;;;;12.45;5.37;;;;;;;;;;4407384;32;20112;-66
2021/10/22 13:10:29;;;;;;;11.95;7.28;;;;;;;;;;4406406;32;20516;-66
2021/10/22 13:20:47;;;;;;;9.27;6.68;;;;;;;;;;4407498;32;20105;-66
2021/10/22 13:23:14;;;;;;;10.20;5.95;;;;;;;;;;4407721;32;20581;-67
2021/10/22 13:25:42;;;;;;;7.80;5.87;;;;;;;;;;4407446;32;20211;-66
2021/10/22 13:28:08;;;;;;;9.18;5.78;;;;;;;;;;4407230;32;20193;-66
2021/10/22 13:30:41;;;;;;;9.63;6.53;;;;;;;;;;4407478;32;20169;-66
2021/10/22 13:33:12;;;;;;;11.73;6.12;;;;;;;;;;4398760;32;20104;-65
2021/10/22 13:35:38;;;;;;;8.73;6.80;;;;;;;;;;4391036;32;20109;-67
2021/10/22 13:38:06;;;;;;;13.07;5.87;;;;;;;;;;4396058;32;20472;-64
2021/10/22 13:40:32;;;;;;;8.27;5.30;;;;;;;;;;4393142;32;20512;-67
2021/10/22 13:42:58;;;;;;;7.72;5.97;;;;;;;;;;4406748;32;20124;-68
2021/10/22 13:45:24;;;;;;;7.07;4.30;;;;;;;;;;4407132;32;20109;-67
2021/10/22 13:47:50;;;;;;;9.80;5.85;;;;;;;;;;4402700;32;20111;-68
2021/10/22 13:50:16;;;;;;;7.07;5.95;;;;;;;;;;4393348;32;20508;-69
2021/10/22 13:52:42;;;;;;;10.15;5.95;;;;;;;;;;4378766;32;20441;-72
2021/10/22 13:55:08;;;;;;;8.10;5.10;;;;;;;;;;4394275;32;20178;-75
2021/10/22 13:57:34;;;;;;;9.60;6.62;;;;;;;;;;4396655;32;20112;-74
2021/10/22 14:00:00;;;;;;;9.13;6.10;;;;;;;;;;4409394;32;20500;-74
2021/10/22 14:02:25;;;;;;;13.82;6.18;;;;;;;;;;4408838;32;20109;-73
2021/10/22 14:04:51;;;;;;;8.73;5.80;;;;;;;;;;4409102;32;20124;-73
2021/10/22 14:07:17;;;;;;;8.63;5.43;;;;;;;;;;4407473;32;20216;-72
2021/10/22 14:09:43;;;;;;;9.52;6.72;;;;;;;;;;4409409;32;20112;-72
2021/10/22 14:12:32;;;;;;;9.75;6.35;;;;;;;;;;4408321;32;20120;-71
2021/10/22 14:31:10;;;;;;;9.93;7.28;;;;;;;;;;4409339;32;20201;-73
2021/10/22 14:33:37;;;;;;;8.82;6.55;;;;;;;;;;4408785;32;20571;-71
2021/10/22 14:36:03;;;;;;;9.38;6.85;;;;;;;;;;4409232;32;20174;-71
2021/10/22 14:38:29;;;;;;;8.05;6.93;;;;;;;;;;4407484;32;20440;-71
2021/10/22 14:40:56;;;;;;;16.17;7.53;;;;;;;;;;4409501;32;20124;-71
2021/10/22 14:43:31;;;;;;;9.68;7.30;;;;;;;;;;4403171;32;20206;-73
2021/10/22 14:48:42;;;;;;;11.18;7.03;;;;;;;;;;4408791;32;20120;-74
2021/10/22 14:51:11;;;;;;;10.10;5.85;;;;;;;;;;4407615;32;20209;-70
2021/10/22 14:54:21;;;;;;;11.23;6.75;;;;;;;;;;4408850;32;20125;-71
2021/10/22 14:56:26;;;;;;;10.02;5.25;;;;;;;;;;4401717;32;20096;-70
2021/10/22 14:58:57;;;;;;;13.82;7.80;;;;;;;;;;4390641;32;20133;-73
2021/10/22 15:01:24;;;;;;;9.57;7.05;;;;;;;;;;4394826;32;20133;-71
2021/10/22 15:03:51;;;;;;;7.43;6.72;;;;;;;;;;4386668;32;20109;-71
2021/10/22 15:06:18;;;;;;;11.02;7.60;;;;;;;;;;4391699;32;20090;-69
2021/10/22 15:08:44;;;;;;;9.60;7.03;;;;;;;;;;4392857;32;20117;-71
2021/10/22 15:11:10;;;;;;;10.20;6.93;;;;;;;;;;4393460;32;20459;-68
2021/10/22 15:13:36;;;;;;;7.85;6.82;;;;;;;;;;4393067;32;20133;-68
2021/10/22 15:16:02;;;;;;;13.23;7.45;;;;;;;;;;4379461;32;20113;-70
2021/10/22 15:18:28;;;;;;;8.65;6.78;;;;;;;;;;4393366;32;20119;-68
2021/10/22 15:20:54;;;;;;;9.07;7.03;;;;;;;;;;4406203;32;20277;-68
2021/10/22 15:23:20;;;;;;;11.70;6.50;;;;;;;;;;4395661;32;20110;-66
2021/10/22 15:25:46;;;;;;;9.70;6.75;;;;;;;;;;4392512;32;20095;-68
2021/10/22 15:28:12;;;;;;;7.80;6.18;;;;;;;;;;4393254;32;20508;-67
2021/10/22 15:30:38;;;;;;;10.15;6.75;;;;;;;;;;4404734;32;20535;-68
2021/10/22 15:33:04;;;;;;;10.45;6.50;;;;;;;;;;4405840;32;20567;-68
2021/10/22 15:35:30;;;;;;;10.23;6.28;;;;;;;;;;4407095;32;20436;-68
2021/10/22 15:37:56;;;;;;;8.52;5.45;;;;;;;;;;4397982;32;20112;-68
2021/10/22 15:40:22;;;;;;;8.32;5.78;;;;;;;;;;4379241;32;20106;-69
2021/10/22 15:42:48;;;;;;;9.98;6.47;;;;;;;;;;4392763;32;20540;-65
2021/10/22 15:45:13;;;;;;;9.15;5.93;;;;;;;;;;4392759;32;20175;-66
2021/10/22 15:47:39;;;;;;;11.02;6.53;;;;;;;;;;4400076;32;20194;-67
2021/10/22 15:50:06;;;;;;;9.88;6.90;;;;;;;;;;4404942;32;20093;-67
2021/10/22 15:52:32;;;;;;;12.23;6.70;;;;;;;;;;4382259;32;20184;-68
2021/10/22 15:54:58;;;;;;;8.85;6.43;;;;;;;;;;4380938;32;20163;-67
2021/10/22 15:57:29;;;;;;;11.90;6.32;;;;;;;;;;4391217;32;20175;-67
2021/10/22 15:59:55;;;;;;;18.45;7.00;;;;;;;;;;4393028;32;20632;-67
2021/10/22 16:02:21;;;;;;;12.90;6.60;;;;;;;;;;4403079;32;20577;-65
2021/10/22 16:04:47;;;;;;;8.77;5.68;;;;;;;;;;4408467;32;20175;-68
2021/10/22 16:07:26;;;;;;;12.00;6.22;;;;;;;;;;4407940;32;20133;-67
2021/10/22 16:10:08;;;;;;;9.73;6.07;;;;;;;;;;4403865;32;20208;-70
2021/10/22 16:13:13;;;;;;;12.70;6.65;;;;;;;;;;4392268;32;20527;-67
2021/10/22 16:17:52;;;;;;;15.27;7.10;;;;;;;;;;4392912;32;20360;-67
2021/10/22 16:20:18;;;;;;;9.93;6.53;;;;;;;;;;4391428;32;20202;-68
2021/10/22 16:22:44;;;;;;;9.05;6.75;;;;;;;;;;4392729;32;20129;-67
2021/10/22 16:25:10;;;;;;;9.45;7.07;;;;;;;;;;4393024;32;20105;-67
2021/10/22 16:27:36;;;;;;;11.27;7.80;;;;;;;;;;4401004;32;20112;-68
2021/10/22 16:30:03;;;;;;;9.02;6.82;;;;;;;;;;4408209;32;20197;-66
2021/10/22 16:32:30;;;;;;;11.10;7.93;;;;;;;;;;4407880;32;20113;-67
2021/10/22 16:37:41;;;;;;;9.85;7.07;;;;;;;;;;4407633;32;20116;-69
2021/10/22 16:40:07;;;;;;;11.30;7.65;;;;;;;;;;4407873;32;20189;-69
2021/10/22 16:42:33;;;;;;;9.32;7.60;;;;;;;;;;4407823;32;20104;-71
2021/10/22 16:45:00;;;;;;;9.10;7.45;;;;;;;;;;4406835;32;20116;-73
2021/10/22 16:47:27;;;;;;;9.15;7.50;;;;;;;;;;4408360;32;20139;-73
2021/10/22 16:49:53;;;;;;;8.20;7.40;;;;;;;;;;4407881;32;20562;-72
2021/10/22 16:52:19;;;;;;;12.23;8.02;;;;;;;;;;4407670;32;20140;-70
2021/10/22 16:54:46;;;;;;;10.55;8.35;;;;;;;;;;4392692;32;20135;-71
2021/10/22 16:57:12;;;;;;;9.43;8.48;;;;;;;;;;4392430;32;20113;-71
2021/10/22 16:59:38;;;;;;;12.13;8.82;;;;;;;;;;4392703;32;20209;-71
2021/10/22 17:02:04;;;;;;;10.40;8.63;;;;;;;;;;4392373;32;20112;-72
2021/10/22 17:04:32;;;;;;;14.25;10.02;;;;;;;;;;4391255;32;20105;-70
2021/10/22 17:06:59;;;;;;;16.23;8.93;;;;;;;;;;4377294;32;20222;-69
2021/10/22 17:09:25;;;;;;;12.15;9.77;;;;;;;;;;4377482;32;20109;-70
2021/10/22 17:11:51;;;;;;;17.62;10.48;;;;;;;;;;4377481;32;20117;-69
2021/10/22 17:14:18;;;;;;;10.77;9.50;;;;;;;;;;4375855;32;20121;-69
2021/10/22 17:16:44;;;;;;;10.63;8.88;;;;;;;;;;4377172;32;20091;-67
2021/10/22 17:19:10;;;;;;;20.10;9.30;;;;;;;;;;4377288;32;20094;-67
2021/10/22 17:21:37;;;;;;;11.43;8.90;;;;;;;;;;4377012;32;20116;-66
2021/10/22 17:24:03;;;;;;;9.77;8.77;;;;;;;;;;4363507;32;20121;-68
2021/10/22 17:26:29;;;;;;;10.75;9.43;;;;;;;;;;4377077;32;20614;-66
2021/10/22 17:28:56;;;;;;;13.52;8.73;;;;;;;;;;4377143;32;20122;-66
2021/10/22 17:31:23;;;;;;;11.50;9.00;;;;;;;;;;4377232;32;20081;-65
2021/10/22 17:33:49;;;;;;;13.40;9.80;;;;;;;;;;4375704;32;20098;-67
2021/10/22 17:36:15;;;;;;;12.50;9.82;;;;;;;;;;4377098;32;20113;-67
2021/10/22 17:38:41;;;;;;;11.40;9.95;;;;;;;;;;4376738;32;20207;-67
2021/10/22 17:41:07;;;;;;;11.98;9.73;;;;;;;;;;4375665;32;20140;-68
2021/10/22 17:43:33;;;;;;;13.95;9.80;;;;;;;;;;4375592;32;20613;-67
2021/10/22 17:45:59;;;;;;;13.80;10.88;;;;;;;;;;4363139;32;20102;-67
2021/10/22 17:48:25;;;;;;;11.27;10.13;;;;;;;;;;4375511;32;20557;-68
2021/10/22 17:50:50;;;;;;;11.25;9.90;;;;;;;;;;4377099;32;20206;-69
2021/10/22 17:53:16;;;;;;;13.07;10.20;;;;;;;;;;4377411;32;20110;-68
2021/10/22 17:55:42;;;;;;;11.60;9.95;;;;;;;;;;4392084;32;20114;-68
2021/10/22 17:58:08;;;;;;;13.57;10.30;;;;;;;;;;4391896;32;20177;-68
2021/10/22 18:00:34;;;;;;;11.27;10.07;;;;;;;;;;4391833;32;20105;-68
2021/10/22 18:03:00;;;;;;;14.80;11.90;;;;;;;;;;4390176;32;20547;-68
2021/10/22 18:05:26;;;;;;;15.07;13.45;;;;;;;;;;4391841;32;20116;-68
2021/10/22 18:07:52;;;;;;;12.68;10.93;;;;;;;;;;4391724;32;20516;-68
2021/10/22 18:10:18;;;;;;;13.25;10.90;;;;;;;;;;4391796;32;20204;-66
2021/10/22 18:12:45;;;;;;;13.38;10.07;;;;;;;;;;4392009;32;20517;-71
2021/10/22 18:15:11;;;;;;;12.45;10.65;;;;;;;;;;4390485;32;20177;-72
2021/10/22 18:17:37;;;;;;;12.68;11.38;;;;;;;;;;4391866;32;20140;-73
2021/10/22 18:20:04;;;;;;;13.15;10.35;;;;;;;;;;4391616;32;20512;-73
2021/10/22 18:22:33;;;;;;;13.18;9.85;;;;;;;;;;4391416;32;20097;-73
2021/10/22 18:24:59;;;;;;;11.55;10.05;;;;;;;;;;4390491;32;20193;-70
2021/10/22 18:27:26;;;;;;;11.32;9.70;;;;;;;;;;4389947;32;20125;-70
2021/10/22 18:29:57;;;;;;;15.77;10.57;;;;;;;;;;4391612;32;20193;-71
2021/10/22 18:32:25;;;;;;;13.52;10.35;;;;;;;;;;4390004;32;20117;-69
2021/10/22 18:34:52;;;;;;;13.85;11.00;;;;;;;;;;4390293;32;20553;-70
2021/10/22 18:37:17;;;;;;;12.30;10.95;;;;;;;;;;4393750;32;20132;-70
2021/10/22 18:39:44;;;;;;;11.65;10.45;;;;;;;;;;4393980;32;20113;-70
2021/10/22 18:42:09;;;;;;;12.75;11.40;;;;;;;;;;4393766;32;20198;-70
2021/10/22 18:44:35;;;;;;;13.48;10.60;;;;;;;;;;4393770;32;20216;-70
2021/10/22 18:47:01;;;;;;;12.27;10.90;;;;;;;;;;4394026;32;20113;-70
2021/10/22 18:49:44;;;;;;;13.23;11.00;;;;;;;;;;4393964;32;20101;-70
2021/10/22 18:52:10;;;;;;;14.07;11.15;;;;;;;;;;4393724;32;20453;-69
2021/10/22 18:54:36;;;;;;;14.10;11.05;;;;;;;;;;4393831;32;20109;-70
2021/10/22 18:57:02;;;;;;;12.63;10.57;;;;;;;;;;4393669;32;20104;-68
2021/10/22 18:59:28;;;;;;;12.73;10.73;;;;;;;;;;4393653;32;20224;-68
2021/10/22 19:01:55;;;;;;;15.48;10.82;;;;;;;;;;4393601;32;20129;-71
2021/10/22 19:04:21;;;;;;;12.18;10.60;;;;;;;;;;4393594;32;20117;-69
2021/10/22 19:06:50;;;;;;;13.93;10.20;;;;;;;;;;4393476;32;20121;-69
2021/10/22 19:09:15;;;;;;;11.68;10.48;;;;;;;;;;4392056;32;20475;-69
2021/10/22 19:11:43;;;;;;;10.63;9.55;;;;;;;;;;4393426;32;20097;-69
2021/10/22 19:14:10;;;;;;;10.75;9.60;;;;;;;;;;4379729;32;20140;-71
2021/10/22 19:16:36;;;;;;;11.18;10.00;;;;;;;;;;4393663;32;20101;-69
2021/10/22 19:19:02;;;;;;;12.05;9.85;;;;;;;;;;4393563;32;20220;-70
2021/10/22 19:21:28;;;;;;;13.80;10.38;;;;;;;;;;4393427;32;20112;-69
2021/10/22 19:23:55;;;;;;;13.65;9.75;;;;;;;;;;4393436;32;20522;-70
2021/10/22 19:26:22;;;;;;;12.32;10.23;;;;;;;;;;4393569;32;20189;-69
2021/10/22 19:28:51;;;;;;;11.45;9.70;;;;;;;;;;4393339;32;20101;-71
2021/10/22 19:31:17;;;;;;;14.55;10.35;;;;;;;;;;4393522;32;20132;-69
2021/10/22 19:33:43;;;;;;;11.82;10.50;;;;;;;;;;4393175;32;20096;-69
2021/10/22 19:36:10;;;;;;;14.00;10.48;;;;;;;;;;4393437;32;20117;-70
2021/10/22 19:38:36;;;;;;;13.20;11.68;;;;;;;;;;4393476;32;20519;-70
2021/10/22 19:41:03;;;;;;;15.60;12.13;;;;;;;;;;4393358;32;20125;-69
2021/10/22 19:43:36;;;;;;;12.05;10.60;;;;;;;;;;4393408;32;20104;-69
2021/10/22 19:46:02;;;;;;;13.27;10.43;;;;;;;;;;4393533;32;20089;-70
2021/10/22 19:48:28;;;;;;;12.00;10.80;;;;;;;;;;4393087;32;20120;-69
2021/10/22 19:50:53;;;;;;;12.93;11.45;;;;;;;;;;4393213;32;20119;-69
2021/10/22 19:53:19;;;;;;;14.98;11.32;;;;;;;;;;4393101;32;20495;-69
2021/10/22 19:55:46;;;;;;;14.18;11.77;;;;;;;;;;4393175;32;20105;-69
2021/10/22 19:58:12;;;;;;;12.40;10.15;;;;;;;;;;4393072;32;20476;-71
2021/10/22 20:00:38;;;;;;;13.65;11.18;;;;;;;;;;4388819;32;20525;-69
2021/10/22 20:03:04;;;;;;;14.38;10.20;;;;;;;;;;4381660;32;20102;-69
2021/10/22 20:05:30;;;;;;;14.20;11.27;;;;;;;;;;4388524;32;20121;-70
2021/10/22 20:07:59;;;;;;;16.40;11.20;;;;;;;;;;4380455;32;20751;-71
2021/10/22 20:10:26;;;;;;;14.38;10.43;;;;;;;;;;4393275;32;20109;-69
2021/10/22 20:12:53;;;;;;;16.40;10.50;;;;;;;;;;4393295;32;20620;-69
2021/10/22 20:15:19;;;;;;;16.20;11.52;;;;;;;;;;4391815;32;20105;-69
2021/10/22 20:17:45;;;;;;;12.88;11.05;;;;;;;;;;4382617;32;20205;-73
2021/10/22 20:20:11;;;;;;;14.27;11.05;;;;;;;;;;4377965;32;20097;-70
2021/10/22 20:22:37;;;;;;;12.02;10.73;;;;;;;;;;4378063;32;20142;-68
2021/10/22 20:25:03;;;;;;;12.65;11.15;;;;;;;;;;4377976;32;20571;-70
2021/10/22 20:27:29;;;;;;;14.38;10.90;;;;;;;;;;4376724;32;20088;-70
2021/10/22 20:29:57;;;;;;;12.32;9.35;;;;;;;;;;4377771;32;20106;-69
2021/10/22 20:32:23;;;;;;;13.73;10.73;;;;;;;;;;4377857;32;20101;-69
2021/10/22 20:34:49;;;;;;;13.95;10.60;;;;;;;;;;4384218;32;20098;-69
2021/10/22 20:37:15;;;;;;;14.50;10.30;;;;;;;;;;4377680;32;20221;-69
2021/10/22 20:39:41;;;;;;;13.75;11.00;;;;;;;;;;4377691;32;20098;-70
2021/10/22 20:42:07;;;;;;;11.57;10.45;;;;;;;;;;4377721;32;20237;-69
2021/10/22 20:44:33;;;;;;;14.38;11.18;;;;;;;;;;4377804;32;20129;-70
2021/10/22 20:47:03;;;;;;;14.48;10.55;;;;;;;;;;4377539;32;20479;-69